Time;durP1;ratioP1;P1;durP2;ratioP2;P2;SDS_P1;SDS_P2;PMS_P1;PMS_P2;Temp;Humidity;BMP_temperature;BMP_pressure;BME280_temperature;BME280_humidity;BME280_pressure;Samples;Min_cycle;Max_cycle;Signal;HPM_P1;HPM_P2
2022/05/24 00:00:43;;;;;;;2.23;1.47;;;18.60;99.90;;;;;;5073668;28;20528;-57
2022/05/24 00:03:10;;;;;;;2.77;2.30;;;18.40;99.90;;;;;;5073756;28;20445;-57
2022/05/24 00:05:38;;;;;;;1.70;1.60;;;18.30;99.90;;;;;;5073817;28;20567;-57
2022/05/24 00:08:09;;;;;;;2.97;1.67;;;18.20;99.90;;;;;;5073524;28;20447;-58
2022/05/24 00:10:36;;;;;;;1.93;1.83;;;18.10;99.90;;;;;;5073933;28;20900;-57
2022/05/24 00:13:04;;;;;;;4.90;1.50;;;18.10;99.90;;;;;;5073587;28;20481;-57
2022/05/24 00:15:32;;;;;;;2.13;1.80;;;18.00;99.90;;;;;;5074075;28;20444;-57
2022/05/24 00:18:02;;;;;;;2.57;1.53;;;17.90;99.90;;;;;;5073342;28;20445;-58
2022/05/24 00:20:32;;;;;;;6.33;1.70;;;17.90;99.90;;;;;;5073689;28;20429;-57
2022/05/24 00:22:59;;;;;;;2.90;1.90;;;17.80;99.90;;;;;;5073532;28;20470;-57
2022/05/24 00:25:29;;;;;;;4.67;1.97;;;17.80;99.90;;;;;;5073385;28;20506;-57
2022/05/24 00:27:57;;;;;;;1.67;1.57;;;17.80;99.90;;;;;;5073104;28;20923;-57
2022/05/24 00:30:24;;;;;;;1.97;1.80;;;17.60;99.90;;;;;;5073164;28;20444;-57
2022/05/24 00:32:52;;;;;;;4.13;1.87;;;17.40;99.90;;;;;;5073393;28;20459;-57
2022/05/24 00:35:19;;;;;;;2.03;1.87;;;17.30;99.90;;;;;;5073224;28;20530;-58
2022/05/24 00:37:47;;;;;;;2.03;1.63;;;17.30;99.90;;;;;;5073152;28;20450;-58
2022/05/24 00:40:32;;;;;;;1.77;1.67;;;17.30;99.90;;;;;;5073395;28;20555;-56
2022/05/24 00:43:03;;;;;;;1.57;1.47;;;17.30;99.90;;;;;;5072840;28;20978;-57
2022/05/24 00:45:34;;;;;;;1.67;1.57;;;17.10;99.90;;;;;;5073164;28;20435;-57
2022/05/24 00:48:06;;;;;;;2.27;2.07;;;17.10;99.90;;;;;;5072924;28;20844;-57
2022/05/24 00:50:38;;;;;;;2.23;1.97;;;17.10;99.90;;;;;;5073091;28;20520;-57
2022/05/24 00:53:09;;;;;;;3.57;1.77;;;17.10;99.90;;;;;;5073344;28;20523;-57
2022/05/24 00:55:43;;;;;;;3.23;1.93;;;17.10;99.90;;;;;;5072714;28;20460;-57
2022/05/24 00:58:23;;;;;;;1.90;1.80;;;17.20;99.90;;;;;;5072925;28;20795;-57
2022/05/24 01:00:50;;;;;;;1.80;1.70;;;17.20;99.90;;;;;;5073249;28;20435;-57
2022/05/24 01:03:18;;;;;;;1.77;1.67;;;17.30;99.90;;;;;;5073224;28;20470;-57
2022/05/24 01:05:45;;;;;;;4.80;1.60;;;17.30;99.90;;;;;;5072707;28;20455;-57
2022/05/24 01:08:12;;;;;;;1.63;1.53;;;17.20;99.90;;;;;;5073013;28;20471;-57
2022/05/24 01:10:44;;;;;;;2.70;1.50;;;17.20;99.90;;;;;;5073179;28;20455;-57
2022/05/24 01:13:15;;;;;;;3.40;1.63;;;17.20;99.90;;;;;;5074808;28;20926;-57
2022/05/24 01:15:44;;;;;;;1.73;1.63;;;17.40;99.90;;;;;;5076568;28;20440;-57
2022/05/24 01:18:13;;;;;;;1.33;1.20;;;17.50;99.90;;;;;;5076526;28;20476;-57
2022/05/24 01:20:44;;;;;;;1.50;1.40;;;17.50;99.90;;;;;;5076828;28;20450;-57
2022/05/24 01:23:29;;;;;;;1.70;1.60;;;17.50;99.90;;;;;;5076483;28;20519;-57
2022/05/24 01:26:02;;;;;;;1.60;1.50;;;17.50;99.90;;;;;;5076680;28;20488;-57
2022/05/24 01:28:38;;;;;;;3.53;2.07;;;17.50;99.90;;;;;;5076573;28;20464;-57
2022/05/24 01:31:06;;;;;;;2.57;1.93;;;17.50;99.90;;;;;;5076698;28;20435;-57
2022/05/24 01:36:22;;;;;;;1.67;1.57;;;17.50;99.90;;;;;;5076251;28;20399;-57
2022/05/24 01:38:52;;;;;;;1.60;1.50;;;17.40;99.90;;;;;;5076402;28;20469;-58
2022/05/24 01:41:22;;;;;;;2.27;2.07;;;17.40;99.90;;;;;;5076023;28;20448;-57
2022/05/24 01:43:53;;;;;;;2.43;1.80;;;17.40;99.90;;;;;;5075926;28;21002;-57
2022/05/24 01:46:24;;;;;;;1.87;1.77;;;17.40;99.90;;;;;;5076081;28;20468;-57
2022/05/24 01:48:54;;;;;;;1.63;1.53;;;17.50;99.90;;;;;;5076335;28;20460;-57
2022/05/24 01:51:26;;;;;;;2.90;1.97;;;17.50;99.90;;;;;;5075874;28;20450;-57
2022/05/24 01:53:58;;;;;;;1.77;1.67;;;17.40;99.90;;;;;;5076262;28;20433;-57
2022/05/24 01:56:36;;;;;;;1.60;1.50;;;17.40;99.90;;;;;;5075915;28;20437;-57
2022/05/24 01:59:06;;;;;;;1.60;1.50;;;17.30;99.90;;;;;;5075728;28;20483;-57
2022/05/24 02:01:44;;;;;;;4.97;1.77;;;17.30;99.90;;;;;;5076054;28;20453;-57
2022/05/24 02:04:12;;;;;;;1.70;1.60;;;17.30;99.90;;;;;;5075704;28;20891;-57
2022/05/24 02:06:39;;;;;;;2.20;2.00;;;17.30;99.90;;;;;;5075710;28;20475;-57
2022/05/24 02:09:08;;;;;;;1.63;1.53;;;17.20;99.90;;;;;;5075409;28;21046;-57
2022/05/24 02:11:36;;;;;;;2.50;1.67;;;17.30;99.90;;;;;;5075674;28;20801;-57
2022/05/24 02:14:12;;;;;;;2.10;2.00;;;17.30;99.90;;;;;;5075767;28;20452;-57
2022/05/24 02:16:44;;;;;;;2.10;1.93;;;17.20;99.90;;;;;;5075868;28;20826;-57
2022/05/24 02:19:14;;;;;;;1.73;1.63;;;17.10;99.90;;;;;;5075355;28;20971;-57
2022/05/24 02:21:44;;;;;;;2.03;1.73;;;17.10;99.90;;;;;;5075456;28;20531;-57
2022/05/24 02:24:20;;;;;;;1.70;1.60;;;17.10;99.90;;;;;;5075458;28;20452;-57
2022/05/24 02:26:48;;;;;;;1.90;1.80;;;17.10;99.90;;;;;;5075207;28;20841;-58
2022/05/24 02:29:18;;;;;;;2.10;1.77;;;17.10;99.90;;;;;;5075319;28;20978;-58
2022/05/24 02:31:45;;;;;;;1.83;1.73;;;16.90;99.90;;;;;;5075060;28;20447;-57
2022/05/24 02:34:13;;;;;;;7.33;1.90;;;16.90;99.90;;;;;;5075517;28;20525;-57
2022/05/24 02:36:41;;;;;;;2.70;2.23;;;17.00;99.90;;;;;;5075529;28;20440;-58
2022/05/24 02:39:08;;;;;;;1.73;1.63;;;16.90;99.90;;;;;;5075179;28;20468;-57
2022/05/24 02:41:36;;;;;;;1.87;1.70;;;16.90;99.90;;;;;;5075019;28;20444;-57
2022/05/24 02:44:07;;;;;;;2.17;2.00;;;16.90;99.90;;;;;;5074835;28;20566;-57
2022/05/24 02:46:37;;;;;;;3.10;2.13;;;17.00;99.90;;;;;;5074913;28;20465;-57
2022/05/24 02:49:07;;;;;;;2.53;2.07;;;17.00;99.90;;;;;;5075282;28;20464;-58
2022/05/24 02:51:35;;;;;;;2.33;1.97;;;17.00;99.90;;;;;;5075156;28;20448;-58
2022/05/24 02:54:02;;;;;;;3.47;1.87;;;17.00;99.90;;;;;;5074743;28;20460;-57
2022/05/24 02:56:29;;;;;;;1.97;1.77;;;17.00;99.90;;;;;;5074954;28;20448;-57
2022/05/24 02:58:56;;;;;;;2.77;2.57;;;16.90;99.90;;;;;;5074672;28;20473;-58
2022/05/24 03:01:26;;;;;;;2.17;1.97;;;16.80;99.90;;;;;;5074689;28;20452;-57
2022/05/24 03:03:57;;;;;;;2.20;2.00;;;16.70;99.90;;;;;;5074537;28;20455;-57
2022/05/24 03:06:25;;;;;;;2.93;2.73;;;16.80;99.90;;;;;;5074499;28;20887;-57
2022/05/24 03:14:18;;;;;;;2.30;2.03;;;16.70;99.90;;;;;;5074358;28;20413;-58
2022/05/24 03:16:47;;;;;;;2.50;2.00;;;16.70;99.90;;;;;;5075013;28;20440;-58
2022/05/24 03:19:16;;;;;;;2.50;2.30;;;16.90;99.90;;;;;;5074193;28;20468;-57
2022/05/24 03:21:44;;;;;;;3.40;2.17;;;16.90;99.90;;;;;;5074474;28;20535;-57
2022/05/24 03:24:12;;;;;;;2.20;2.00;;;16.90;99.90;;;;;;5074314;28;20455;-58
2022/05/24 03:26:39;;;;;;;2.57;2.37;;;16.80;99.90;;;;;;5073898;28;20472;-57
2022/05/24 03:29:07;;;;;;;4.17;2.90;;;16.70;99.90;;;;;;5074053;28;20967;-58
2022/05/24 03:31:35;;;;;;;2.83;1.90;;;16.70;99.90;;;;;;5073939;28;20460;-58
2022/05/24 03:34:02;;;;;;;2.30;1.90;;;16.70;99.90;;;;;;5074033;28;20515;-59
2022/05/24 03:36:31;;;;;;;2.40;2.00;;;16.80;99.90;;;;;;5073686;28;20444;-57
2022/05/24 03:38:58;;;;;;;2.63;2.43;;;16.90;99.90;;;;;;5073658;28;20504;-58
2022/05/24 03:41:25;;;;;;;1.87;1.77;;;16.90;99.90;;;;;;5073954;28;20467;-57
2022/05/24 03:43:52;;;;;;;3.13;1.93;;;16.90;99.90;;;;;;5073626;28;20480;-57
2022/05/24 03:46:20;;;;;;;2.47;2.27;;;16.80;99.90;;;;;;5074058;28;20790;-57
2022/05/24 03:48:48;;;;;;;2.10;1.80;;;16.80;99.90;;;;;;5073987;28;20464;-58
2022/05/24 03:51:15;;;;;;;2.80;1.97;;;16.90;99.90;;;;;;5073916;28;20459;-57
2022/05/24 03:53:43;;;;;;;2.80;2.47;;;16.90;99.90;;;;;;5074005;28;20527;-58
2022/05/24 03:56:11;;;;;;;2.50;2.30;;;16.90;99.90;;;;;;5073950;28;20536;-57
2022/05/24 03:58:38;;;;;;;2.73;2.30;;;16.90;99.90;;;;;;5073525;28;20807;-57
2022/05/24 04:01:06;;;;;;;2.63;2.20;;;17.00;99.90;;;;;;5073746;28;20448;-57
2022/05/24 04:03:35;;;;;;;3.07;2.20;;;17.00;99.90;;;;;;5073838;28;20479;-57
2022/05/24 04:06:02;;;;;;;3.10;2.27;;;17.10;99.90;;;;;;5073752;28;20448;-57
2022/05/24 04:08:29;;;;;;;2.40;2.07;;;17.10;99.90;;;;;;5073651;28;20569;-57
2022/05/24 04:11:04;;;;;;;2.27;1.93;;;17.10;99.90;;;;;;5073691;28;20441;-57
2022/05/24 04:13:32;;;;;;;3.00;1.70;;;17.10;99.90;;;;;;5073471;28;20424;-57
2022/05/24 04:15:59;;;;;;;1.60;1.50;;;17.00;99.90;;;;;;5073304;28;20529;-58
2022/05/24 04:18:27;;;;;;;2.30;2.10;;;17.00;99.90;;;;;;5073308;28;20966;-57
2022/05/24 04:20:55;;;;;;;2.47;1.90;;;17.10;99.90;;;;;;5073345;28;20451;-58
2022/05/24 04:23:23;;;;;;;2.50;1.70;;;17.10;99.90;;;;;;5073585;28;20539;-58
2022/05/24 04:25:51;;;;;;;3.90;1.90;;;17.10;99.90;;;;;;5072984;28;20459;-58
2022/05/24 04:28:20;;;;;;;1.93;1.80;;;17.10;99.90;;;;;;5073088;28;20494;-58
2022/05/24 04:30:47;;;;;;;2.20;1.63;;;17.10;99.90;;;;;;5072974;28;20535;-58
2022/05/24 04:33:15;;;;;;;1.70;1.60;;;17.10;99.90;;;;;;5073538;28;20452;-57
2022/05/24 04:35:43;;;;;;;2.00;1.90;;;17.10;99.90;;;;;;5073333;28;20541;-57
2022/05/24 04:38:11;;;;;;;1.73;1.63;;;17.20;99.90;;;;;;5073099;28;20476;-57
2022/05/24 04:43:24;;;;;;;1.70;1.60;;;17.40;99.90;;;;;;5072912;28;20521;-58
2022/05/24 04:45:53;;;;;;;1.77;1.67;;;17.40;99.90;;;;;;5073068;28;20546;-58
2022/05/24 04:48:21;;;;;;;4.27;1.50;;;17.40;99.90;;;;;;5075274;28;20488;-57
2022/05/24 04:50:52;;;;;;;1.77;1.67;;;17.40;99.90;;;;;;5076947;28;20444;-57
2022/05/24 04:53:19;;;;;;;2.73;1.70;;;17.40;99.90;;;;;;5077356;28;20515;-57
2022/05/24 04:55:49;;;;;;;2.53;2.17;;;17.40;99.90;;;;;;5077283;28;20455;-58
2022/05/24 04:58:16;;;;;;;1.80;1.70;;;17.40;99.90;;;;;;5077116;28;20468;-58
2022/05/24 05:00:45;;;;;;;2.63;1.80;;;17.40;99.90;;;;;;5076777;28;20811;-58
2022/05/24 05:03:17;;;;;;;1.80;1.70;;;17.40;99.90;;;;;;5077132;28;20452;-57
2022/05/24 05:05:45;;;;;;;2.03;1.83;;;17.40;99.90;;;;;;5077061;28;20478;-58
2022/05/24 05:08:12;;;;;;;1.67;1.57;;;17.40;99.90;;;;;;5076610;28;20490;-58
2022/05/24 05:10:40;;;;;;;1.90;1.70;;;17.40;99.90;;;;;;5076796;28;20446;-58
2022/05/24 05:13:08;;;;;;;2.23;2.03;;;17.40;99.90;;;;;;5076986;28;20450;-57
2022/05/24 05:15:37;;;;;;;3.47;1.70;;;17.50;99.90;;;;;;5076446;28;20452;-58
2022/05/24 05:18:07;;;;;;;3.63;1.83;;;17.60;99.90;;;;;;5076433;28;20440;-58
2022/05/24 05:20:39;;;;;;;2.13;1.97;;;17.70;99.90;;;;;;5076399;28;20973;-57
2022/05/24 05:23:06;;;;;;;1.97;1.80;;;17.70;99.90;;;;;;5076807;28;20524;-57
2022/05/24 05:25:34;;;;;;;2.87;1.80;;;17.80;99.90;;;;;;5076146;28;20464;-57
2022/05/24 05:28:02;;;;;;;2.63;2.07;;;17.70;99.90;;;;;;5076662;28;20575;-58
2022/05/24 05:33:16;;;;;;;1.70;1.60;;;17.70;99.90;;;;;;5076162;28;20416;-58
2022/05/24 05:35:45;;;;;;;2.00;1.80;;;17.70;99.90;;;;;;5076206;28;20479;-58
2022/05/24 05:38:12;;;;;;;2.23;1.80;;;17.80;99.90;;;;;;5075862;28;20444;-58
2022/05/24 05:40:43;;;;;;;3.33;2.23;;;17.90;99.90;;;;;;5076059;28;20456;-58
2022/05/24 05:43:10;;;;;;;1.97;1.87;;;18.10;99.90;;;;;;5075515;28;20484;-57
2022/05/24 05:45:38;;;;;;;2.83;2.53;;;18.10;99.90;;;;;;5075221;28;20454;-56
2022/05/24 05:48:06;;;;;;;2.47;2.27;;;18.20;99.90;;;;;;5074857;28;20488;-57
2022/05/24 05:50:35;;;;;;;2.53;2.33;;;18.20;99.90;;;;;;5074816;28;20525;-57
2022/05/24 05:53:04;;;;;;;4.13;3.13;;;18.20;99.90;;;;;;5074648;28;20454;-57
2022/05/24 05:55:31;;;;;;;2.77;2.43;;;18.30;99.90;;;;;;5074519;28;20858;-57
2022/05/24 05:57:58;;;;;;;2.67;2.43;;;18.50;99.90;;;;;;5074233;28;20448;-57
2022/05/24 06:00:26;;;;;;;4.20;2.60;;;18.50;99.90;;;;;;5074779;28;20456;-57
2022/05/24 06:02:53;;;;;;;2.60;2.40;;;18.50;99.90;;;;;;5074652;28;20566;-57
2022/05/24 06:05:20;;;;;;;2.77;2.37;;;18.50;99.90;;;;;;5074377;28;20440;-57
2022/05/24 06:07:49;;;;;;;2.53;2.33;;;18.50;99.90;;;;;;5074650;28;20830;-57
2022/05/24 06:10:17;;;;;;;2.60;1.97;;;18.50;99.90;;;;;;5074245;28;20971;-57
2022/05/24 06:12:44;;;;;;;3.00;2.07;;;18.50;99.90;;;;;;5074259;28;20923;-56
2022/05/24 06:15:12;;;;;;;2.20;2.00;;;18.80;99.90;;;;;;5074833;28;20559;-56
2022/05/24 06:17:45;;;;;;;2.13;1.90;;;18.80;99.90;;;;;;5074552;28;20448;-57
2022/05/24 06:20:13;;;;;;;4.53;2.20;;;18.80;99.90;;;;;;5074301;28;20862;-56
2022/05/24 06:22:40;;;;;;;2.90;2.37;;;18.70;99.90;;;;;;5074193;28;20470;-57
2022/05/24 06:25:10;;;;;;;2.23;2.03;;;18.60;99.90;;;;;;5073980;28;20457;-56
2022/05/24 06:27:37;;;;;;;5.33;2.30;;;18.70;99.90;;;;;;5073935;28;20480;-57
2022/05/24 06:30:06;;;;;;;3.10;2.03;;;18.80;99.90;;;;;;5074290;28;20504;-57
2022/05/24 06:32:33;;;;;;;4.23;2.23;;;18.70;99.90;;;;;;5073866;28;20452;-57
2022/05/24 06:35:00;;;;;;;2.20;2.00;;;18.70;99.90;;;;;;5074449;28;20796;-57
2022/05/24 06:37:31;;;;;;;7.17;2.10;;;18.70;99.90;;;;;;5074454;28;20444;-57
2022/05/24 06:39:58;;;;;;;4.87;2.13;;;18.60;99.90;;;;;;5074110;28;20470;-57
2022/05/24 06:42:37;;;;;;;;;;;;;;;;;;;;;
2022/05/24 06:45:13;;;;;;;2.80;1.90;;;18.70;99.90;;;;;;5131739;27;20580;-56
2022/05/24 06:47:40;;;;;;;2.53;2.10;;;18.80;99.90;;;;;;5131639;28;20438;-57
2022/05/24 06:50:10;;;;;;;2.03;1.80;;;19.00;99.90;;;;;;5131750;28;20461;-57
2022/05/24 06:52:37;;;;;;;2.40;2.10;;;19.10;99.90;;;;;;5131579;28;20799;-57
2022/05/24 06:55:04;;;;;;;2.17;2.00;;;19.10;99.90;;;;;;5131031;28;20807;-57
2022/05/24 06:57:31;;;;;;;2.50;1.80;;;19.00;99.90;;;;;;5131416;28;20437;-58
2022/05/24 07:02:45;;;;;;;2.67;1.73;;;18.90;99.90;;;;;;5131455;28;20406;-57
2022/05/24 07:05:16;;;;;;;3.50;1.77;;;18.90;99.90;;;;;;5131318;28;20851;-57
2022/05/24 07:07:43;;;;;;;3.40;1.40;;;18.90;99.90;;;;;;5131433;27;20781;-57
2022/05/24 07:10:15;;;;;;;3.87;1.90;;;18.30;99.90;;;;;;5131072;28;20446;-57
2022/05/24 07:12:45;;;;;;;6.10;1.67;;;17.10;99.90;;;;;;5131234;28;20430;-57
2022/05/24 07:15:13;;;;;;;2.53;1.53;;;15.60;99.90;;;;;;5131353;27;20415;-57
2022/05/24 07:17:40;;;;;;;4.83;3.07;;;15.00;99.90;;;;;;5130851;28;20456;-57
2022/05/24 07:20:10;;;;;;;4.03;1.83;;;14.70;99.90;;;;;;5130884;28;20552;-57
2022/05/24 07:22:37;;;;;;;5.00;1.50;;;14.50;99.90;;;;;;5130583;27;20525;-57
2022/05/24 07:25:06;;;;;;;2.80;1.37;;;14.50;99.90;;;;;;5130734;28;20846;-57
2022/05/24 07:27:33;;;;;;;1.60;1.50;;;14.50;99.90;;;;;;5130933;27;20481;-57
2022/05/24 07:30:01;;;;;;;1.33;1.23;;;14.40;99.90;;;;;;5130516;27;20518;-57
2022/05/24 07:32:28;;;;;;;1.53;1.43;;;14.30;99.90;;;;;;5130700;28;20525;-56
2022/05/24 07:34:56;;;;;;;2.10;1.83;;;14.30;99.90;;;;;;5130527;28;20928;-56
2022/05/24 07:37:26;;;;;;;2.80;1.57;;;14.40;99.90;;;;;;5130745;27;20474;-56
2022/05/24 07:45:48;;;;;;;1.80;1.40;;;14.40;99.90;;;;;;5130075;28;20556;-57
2022/05/24 07:48:10;;;;;;;3.07;1.53;;;14.80;99.90;;;;;;5130200;28;20393;-57
2022/05/24 07:50:37;;;;;;;1.40;1.30;;;14.80;99.90;;;;;;5130475;28;20446;-57
2022/05/24 07:53:06;;;;;;;1.77;1.67;;;14.90;99.90;;;;;;5130269;28;20442;-57
2022/05/24 07:55:33;;;;;;;1.50;1.40;;;14.90;99.90;;;;;;5122119;28;20527;-57
2022/05/24 07:58:00;;;;;;;2.27;1.30;;;14.80;99.90;;;;;;5116377;28;20446;-57
2022/05/24 08:00:28;;;;;;;1.50;1.40;;;14.90;99.90;;;;;;5116668;28;20438;-56
2022/05/24 08:02:55;;;;;;;1.40;1.30;;;15.10;99.90;;;;;;5116181;28;20438;-57
2022/05/24 08:05:23;;;;;;;1.97;1.40;;;15.40;99.90;;;;;;5116392;28;20513;-57
2022/05/24 08:07:51;;;;;;;2.90;1.57;;;15.80;99.90;;;;;;5116349;28;20496;-57
2022/05/24 08:10:20;;;;;;;1.73;1.50;;;15.90;99.90;;;;;;5116154;28;20447;-57
2022/05/24 08:12:47;;;;;;;1.30;1.20;;;16.10;99.90;;;;;;5115825;28;20446;-57
2022/05/24 08:15:15;;;;;;;1.50;1.33;;;16.20;99.90;;;;;;5116281;28;20423;-57
2022/05/24 08:17:42;;;;;;;1.97;1.30;;;16.20;99.90;;;;;;5116045;28;20439;-57
2022/05/24 08:20:10;;;;;;;1.40;1.23;;;16.10;99.90;;;;;;5116089;28;20469;-57
2022/05/24 08:22:38;;;;;;;2.30;1.60;;;16.40;99.90;;;;;;5116036;28;20454;-57
2022/05/24 08:25:06;;;;;;;2.60;1.50;;;16.60;99.90;;;;;;5115960;28;20567;-57
2022/05/24 08:27:35;;;;;;;2.50;1.50;;;16.50;99.90;;;;;;5116262;28;20495;-56
2022/05/24 08:30:03;;;;;;;3.00;1.30;;;16.40;99.90;;;;;;5116047;28;20466;-57
2022/05/24 08:32:31;;;;;;;1.47;1.37;;;16.30;99.90;;;;;;5115626;28;20937;-57
2022/05/24 08:34:58;;;;;;;2.40;1.37;;;16.40;99.90;;;;;;5115450;28;20460;-57
2022/05/24 08:37:26;;;;;;;1.30;1.20;;;16.40;99.90;;;;;;5115865;28;20921;-57
2022/05/24 08:39:57;;;;;;;3.87;1.40;;;16.40;99.90;;;;;;5115567;28;20569;-57
2022/05/24 08:42:34;;;;;;;2.57;1.40;;;16.50;99.90;;;;;;5115808;28;20781;-57
2022/05/24 08:50:50;;;;;;;2.00;1.47;;;16.90;99.90;;;;;;5115652;28;20409;-57
2022/05/24 08:53:26;;;;;;;3.40;1.60;;;17.00;99.90;;;;;;5115451;28;20434;-57
2022/05/24 08:55:53;;;;;;;1.33;1.20;;;17.20;99.90;;;;;;5115550;28;20448;-56
2022/05/24 08:58:31;;;;;;;1.30;1.20;;;17.40;99.90;;;;;;5115576;28;20961;-57
2022/05/24 09:01:01;;;;;;;2.10;1.60;;;17.40;99.90;;;;;;5115327;28;20426;-57
2022/05/24 09:03:29;;;;;;;1.60;1.50;;;17.40;99.90;;;;;;5115371;28;20430;-57
2022/05/24 09:06:05;;;;;;;1.70;1.50;;;17.70;99.90;;;;;;5115035;28;20447;-57
2022/05/24 09:08:43;;;;;;;1.97;1.57;;;17.90;99.90;;;;;;5114603;28;20471;-57
2022/05/24 09:11:20;;;;;;;2.10;1.90;;;18.10;99.90;;;;;;5115255;28;20427;-57
2022/05/24 09:14:16;;;;;;;2.17;1.27;;;18.10;99.90;;;;;;5115194;28;20450;-57
2022/05/24 09:16:54;;;;;;;1.57;1.13;;;18.00;99.90;;;;;;5110638;28;20497;-57
2022/05/24 09:19:25;;;;;;;2.60;1.30;;;18.30;99.90;;;;;;5109201;28;20477;-56
2022/05/24 09:21:53;;;;;;;4.23;1.30;;;18.70;99.90;;;;;;5112121;28;20502;-57
2022/05/24 09:24:30;;;;;;;1.30;1.10;;;18.80;99.90;;;;;;5114432;28;20747;-57
2022/05/24 09:27:13;;;;;;;1.20;1.10;;;19.00;99.90;;;;;;5112987;28;20842;-56
2022/05/24 09:29:59;;;;;;;2.23;1.30;;;18.80;99.90;;;;;;5113821;27;20466;-57
2022/05/24 09:32:34;;;;;;;1.20;1.10;;;19.30;99.90;;;;;;5113300;28;20422;-58
2022/05/24 09:35:19;;;;;;;1.20;1.10;;;20.00;99.90;;;;;;5112484;28;20430;-57
2022/05/24 09:38:03;;;;;;;1.50;1.20;;;20.30;99.90;;;;;;5114311;28;20431;-57
2022/05/24 09:40:33;;;;;;;1.40;1.30;;;21.40;99.90;;;;;;5114034;28;20480;-57
2022/05/24 09:43:17;;;;;;;1.97;1.13;;;21.70;99.90;;;;;;5111956;28;20464;-57
2022/05/24 09:45:47;;;;;;;1.50;1.00;;;21.20;99.90;;;;;;5113293;28;20553;-57
2022/05/24 09:48:24;;;;;;;1.50;1.20;;;21.00;99.90;;;;;;5113381;28;20905;-58
2022/05/24 09:50:53;;;;;;;1.93;1.30;;;21.20;99.90;;;;;;5113218;28;20864;-57
2022/05/24 09:53:26;;;;;;;5.70;1.23;;;20.90;99.90;;;;;;5114093;28;20525;-58
2022/05/24 09:55:59;;;;;;;1.33;1.23;;;21.20;99.90;;;;;;5103513;28;20914;-57
2022/05/24 09:58:33;;;;;;;1.20;1.10;;;20.80;99.90;;;;;;5093371;28;20521;-57
2022/05/24 10:01:03;;;;;;;1.60;1.20;;;21.40;99.90;;;;;;5093344;28;20894;-58
2022/05/24 10:03:34;;;;;;;1.53;1.20;;;22.30;99.90;;;;;;5091415;28;20922;-57
2022/05/24 10:06:19;;;;;;;1.20;1.10;;;;;;;;;;5092978;28;20471;-58
2022/05/24 10:08:49;;;;;;;1.20;1.00;;;23.00;99.90;;;;;;5083227;28;20965;-58
2022/05/24 10:11:28;;;;;;;1.30;1.07;;;22.60;97.40;;;;;;5091650;28;20472;-57
2022/05/24 10:14:18;;;;;;;1.40;1.27;;;21.60;99.30;;;;;;5093197;28;20461;-57
2022/05/24 10:16:51;;;;;;;1.53;1.40;;;21.40;98.30;;;;;;5092861;28;20485;-57
2022/05/24 10:19:48;;;;;;;1.90;1.33;;;21.50;98.70;;;;;;5091402;28;20800;-57
2022/05/24 10:22:26;;;;;;;2.37;1.23;;;22.30;99.10;;;;;;5092991;28;20424;-59
2022/05/24 10:25:06;;;;;;;4.30;1.17;;;23.00;96.30;;;;;;5092502;28;20562;-58
2022/05/24 10:27:42;;;;;;;1.10;1.00;;;22.60;95.40;;;;;;5091913;28;20419;-58
2022/05/24 10:30:16;;;;;;;1.40;1.27;;;22.40;92.80;;;;;;5092471;28;20462;-58
2022/05/24 10:39:03;;;;;;;1.20;1.07;;;23.10;91.90;;;;;;5092591;28;20442;-57
2022/05/24 10:41:42;;;;;;;1.20;1.03;;;22.90;92.90;;;;;;5077307;28;20447;-57
2022/05/24 10:44:15;;;;;;;2.67;1.20;;;23.20;91.90;;;;;;5091994;28;20479;-58
2022/05/24 10:46:46;;;;;;;3.53;1.20;;;23.50;92.30;;;;;;5092770;28;20835;-57
2022/05/24 10:49:25;;;;;;;1.53;1.40;;;23.50;91.40;;;;;;5090787;28;20464;-57
2022/05/24 10:52:00;;;;;;;1.40;1.20;;;24.40;99.90;;;;;;5092794;28;20428;-58
2022/05/24 10:54:45;;;;;;;1.47;1.17;;;24.90;89.40;;;;;;5092272;28;20438;-58
2022/05/24 10:57:17;;;;;;;1.40;1.20;;;24.70;90.00;;;;;;5109958;28;20507;-58
2022/05/24 10:59:51;;;;;;;4.53;1.10;;;24.50;88.30;;;;;;5112439;28;20470;-56
2022/05/24 11:02:24;;;;;;;2.43;1.30;;;23.40;87.10;;;;;;5113344;28;20427;-59
2022/05/24 11:04:57;;;;;;;4.03;1.30;;;24.20;87.00;;;;;;5110552;28;20466;-58
2022/05/24 11:07:29;;;;;;;1.30;1.20;;;24.10;87.90;;;;;;5112515;28;20472;-58
2022/05/24 11:10:05;;;;;;;1.77;1.03;;;24.00;88.00;;;;;;5112671;28;20443;-58
2022/05/24 11:12:38;;;;;;;1.07;0.97;;;24.50;84.90;;;;;;5110683;28;20521;-58
2022/05/24 11:15:10;;;;;;;1.20;1.10;;;23.50;85.50;;;;;;5112697;28;20924;-58
2022/05/24 11:17:37;;;;;;;1.50;1.20;;;22.90;85.30;;;;;;5112159;28;20430;-58
2022/05/24 11:20:06;;;;;;;1.30;1.20;;;22.40;86.30;;;;;;5111570;28;21152;-58
2022/05/24 11:22:39;;;;;;;2.63;1.20;;;22.00;90.40;;;;;;5112458;28;20446;-57
2022/05/24 11:25:14;;;;;;;1.53;1.43;;;22.30;90.10;;;;;;5110119;28;20960;-58
2022/05/24 11:27:44;;;;;;;3.90;1.10;;;21.80;90.40;;;;;;5112259;28;20438;-58
2022/05/24 11:30:16;;;;;;;2.60;1.30;;;21.70;90.90;;;;;;5113475;28;20546;-58
2022/05/24 11:32:46;;;;;;;1.97;1.50;;;23.00;90.60;;;;;;5114291;28;20872;-59
2022/05/24 11:35:26;;;;;;;1.87;1.10;;;23.30;88.30;;;;;;5116188;28;20442;-61
2022/05/24 11:37:57;;;;;;;1.63;1.40;;;24.00;88.80;;;;;;5116562;28;20429;-58
2022/05/24 11:40:37;;;;;;;2.10;1.30;;;23.60;87.80;;;;;;5115696;28;20434;-58
2022/05/24 11:43:06;;;;;;;1.30;1.10;;;22.80;87.10;;;;;;5115615;28;20460;-58
2022/05/24 11:46:02;;;;;;;1.67;1.00;;;22.10;90.60;;;;;;5116385;28;20463;-58
2022/05/24 11:48:49;;;;;;;3.37;1.50;;;22.90;90.10;;;;;;5113341;28;20454;-58
2022/05/24 11:51:40;;;;;;;1.47;1.30;;;23.40;90.20;;;;;;5115529;28;20426;-58
2022/05/24 11:54:47;;;;;;;1.97;1.30;;;23.10;87.40;;;;;;5115655;28;20829;-58
2022/05/24 11:57:27;;;;;;;2.17;1.30;;;22.70;88.30;;;;;;5114001;28;20443;-58
2022/05/24 11:59:55;;;;;;;1.60;1.50;;;22.50;89.50;;;;;;5116042;28;20891;-59
2022/05/24 12:08:32;;;;;;;2.60;1.30;;;21.00;92.30;;;;;;5115502;28;20438;-58
2022/05/24 12:11:16;;;;;;;2.80;1.40;;;;;;;;;;5113602;28;20433;-58
2022/05/24 12:13:58;;;;;;;2.40;1.30;;;20.60;91.80;;;;;;5115551;28;20545;-57
2022/05/24 12:16:54;;;;;;;3.73;1.10;;;20.80;93.50;;;;;;5115651;28;20419;-57
2022/05/24 12:19:44;;;;;;;1.47;1.30;;;20.80;91.70;;;;;;5099600;28;20481;-58
2022/05/24 12:22:13;;;;;;;1.60;1.23;;;21.00;91.40;;;;;;5115442;28;20451;-58
2022/05/24 12:24:59;;;;;;;1.70;1.60;;;21.00;91.10;;;;;;5115261;28;21005;-58
2022/05/24 12:27:42;;;;;;;1.60;1.20;;;20.90;90.10;;;;;;5110797;28;20522;-58
2022/05/24 12:30:43;;;;;;;1.60;1.50;;;21.20;91.20;;;;;;5115316;28;20549;-58
2022/05/24 12:33:37;;;;;;;2.13;1.23;;;21.80;87.60;;;;;;5115496;28;20423;-57
2022/05/24 12:36:33;;;;;;;2.57;1.33;;;22.60;86.90;;;;;;5114306;28;20738;-58
2022/05/24 12:39:11;;;;;;;2.43;1.30;;;22.90;85.60;;;;;;5068260;28;20474;-57
2022/05/24 12:41:40;;;;;;;2.00;1.40;;;22.30;84.10;;;;;;5112799;28;20935;-56
2022/05/24 12:44:17;;;;;;;3.77;1.20;;;22.00;83.10;;;;;;5114476;28;20573;-57
2022/05/24 12:46:49;;;;;;;3.40;1.53;;;22.50;82.80;;;;;;5115242;28;20489;-57
2022/05/24 12:49:20;;;;;;;1.20;1.10;;;23.10;83.50;;;;;;5113152;28;20463;-57
2022/05/24 12:51:47;;;;;;;2.27;1.40;;;23.10;82.00;;;;;;5114249;28;20928;-57
2022/05/24 12:54:19;;;;;;;1.90;1.30;;;23.10;84.50;;;;;;5114419;28;21012;-58
2022/05/24 12:56:58;;;;;;;1.53;1.43;;;23.70;79.10;;;;;;5112603;28;20427;-58
2022/05/24 12:59:36;;;;;;;4.10;1.73;;;23.00;78.80;;;;;;5114480;28;20462;-58
2022/05/24 13:02:22;;;;;;;3.40;1.40;;;22.50;78.50;;;;;;5114998;28;20506;-57
2022/05/24 13:04:49;;;;;;;2.03;1.43;;;22.20;79.00;;;;;;5112506;28;20423;-58
2022/05/24 13:07:27;;;;;;;2.13;1.10;;;21.70;79.70;;;;;;5114737;28;20446;-57
2022/05/24 13:09:56;;;;;;;2.80;1.33;;;21.70;86.30;;;;;;5114862;27;20572;-58
2022/05/24 13:12:24;;;;;;;3.77;1.43;;;21.70;83.80;;;;;;5112149;28;20925;-58
2022/05/24 13:14:57;;;;;;;1.63;1.53;;;21.10;85.50;;;;;;5114947;28;20863;-57
2022/05/24 13:17:28;;;;;;;1.70;1.60;;;20.80;88.00;;;;;;5115046;28;21027;-57
2022/05/24 13:19:58;;;;;;;3.67;1.50;;;20.40;89.30;;;;;;5114679;28;21014;-57
2022/05/24 13:22:39;;;;;;;4.80;1.87;;;20.30;90.00;;;;;;5115056;28;20433;-57
2022/05/24 13:25:12;;;;;;;1.60;1.47;;;20.50;90.70;;;;;;5113167;28;20462;-57
2022/05/24 13:27:55;;;;;;;2.80;1.40;;;20.50;90.00;;;;;;5094501;28;20444;-57
2022/05/24 13:33:35;;;;;;;2.47;1.60;;;22.40;87.00;;;;;;5094184;28;20415;-58
2022/05/24 13:36:16;;;;;;;2.50;1.20;;;22.70;86.60;;;;;;5094039;28;20424;-58
2022/05/24 13:38:45;;;;;;;1.67;1.30;;;22.70;84.40;;;;;;5094309;28;20495;-58
2022/05/24 13:41:14;;;;;;;1.80;1.40;;;23.10;89.10;;;;;;5094011;28;20444;-58
2022/05/24 13:43:45;;;;;;;1.47;1.27;;;23.20;89.70;;;;;;5093898;28;20562;-58
2022/05/24 13:46:21;;;;;;;2.17;1.10;;;23.40;85.30;;;;;;5093677;28;20463;-58
2022/05/24 13:48:55;;;;;;;1.60;1.30;;;23.30;84.00;;;;;;5094010;28;20459;-57
2022/05/24 13:51:28;;;;;;;2.97;1.40;;;23.20;84.30;;;;;;5093830;28;20427;-57
2022/05/24 13:53:56;;;;;;;1.97;1.40;;;22.30;82.10;;;;;;5093288;28;20431;-57